Time;durP1;ratioP1;P1;durP2;ratioP2;P2;SDS_P1;SDS_P2;PMS_P1;PMS_P2;Temp;Humidity;BMP_temperature;BMP_pressure;BME280_temperature;BME280_humidity;BME280_pressure;Samples;Min_cycle;Max_cycle;Signal;HPM_P1;HPM_P2
2022/03/08 00:01:21;;;;;;;11.73;8.60;;;;;;;-2.32;99.72;102643.72;5050867;28;20167;-45
2022/03/08 00:03:47;;;;;;;16.30;9.55;;;;;;;-2.24;99.57;102638.78;5049849;28;20187;-44
2022/03/08 00:06:13;;;;;;;15.02;9.13;;;;;;;-2.35;98.47;102640.94;5050229;28;20233;-45
2022/03/08 00:08:40;;;;;;;13.55;9.40;;;;;;;-2.32;98.44;102643.72;5050208;28;20221;-44
2022/03/08 00:11:07;;;;;;;11.50;9.02;;;;;;;-2.25;98.82;102637.00;5048972;28;20171;-46
2022/03/08 00:13:32;;;;;;;13.77;9.23;;;;;;;-2.22;98.79;102646.75;5050248;28;20211;-43
2022/03/08 00:15:58;;;;;;;13.73;8.93;;;;;;;-2.29;97.93;102642.97;5050872;28;20167;-46
2022/03/08 00:18:23;;;;;;;13.27;9.10;;;;;;;-2.47;97.88;102643.06;5049554;28;20187;-42
2022/03/08 00:20:49;;;;;;;14.45;9.23;;;;;;;-2.42;97.89;102635.38;5065834;28;20270;-42
2022/03/08 00:23:14;;;;;;;15.77;9.27;;;;;;;-2.45;97.58;102636.13;5050132;28;20184;-43
2022/03/08 00:25:40;;;;;;;12.35;9.13;;;;;;;-2.50;97.73;102640.28;5050484;28;20223;-45
2022/03/08 00:28:05;;;;;;;15.77;9.18;;;;;;;-2.54;98.21;102631.34;5050044;28;20614;-43
2022/03/08 00:30:32;;;;;;;14.40;10.05;;;;;;;-2.59;97.92;102630.25;5065320;28;20253;-44
2022/03/08 00:32:58;;;;;;;11.27;8.85;;;;;;;-2.56;97.86;102635.66;5049640;28;20207;-45
2022/03/08 00:35:25;;;;;;;11.95;8.90;;;;;;;-2.49;97.63;102634.22;5050335;28;20171;-44
2022/03/08 00:37:53;;;;;;;10.82;8.73;;;;;;;-2.51;97.95;102636.75;5048609;28;20199;-43
2022/03/08 00:40:21;;;;;;;13.40;8.77;;;;;;;-2.68;97.87;102635.09;5048602;28;20513;-43
2022/03/08 00:42:48;;;;;;;11.48;8.30;;;;;;;-2.52;98.24;102640.19;5049352;28;20195;-42
2022/03/08 00:45:14;;;;;;;11.73;8.55;;;;;;;-2.59;97.93;102642.50;5048704;28;20171;-44
2022/03/08 00:47:40;;;;;;;10.90;8.95;;;;;;;-2.78;98.09;102648.63;5048612;28;20273;-43
2022/03/08 00:50:09;;;;;;;12.93;8.20;;;;;;;-2.81;98.32;102640.63;5050471;28;20536;-41
2022/03/08 00:52:35;;;;;;;10.00;8.02;;;;;;;-2.81;98.27;102623.16;5049451;28;20206;-42
2022/03/08 00:55:00;;;;;;;10.50;8.15;;;;;;;-2.87;98.05;102630.75;5049946;28;20175;-42
2022/03/08 00:57:27;;;;;;;10.90;9.05;;;;;;;-2.94;98.62;102628.66;5050145;28;20200;-43
2022/03/08 00:59:52;;;;;;;11.85;8.60;;;;;;;-3.00;98.59;102629.28;5031975;28;20284;-43
2022/03/08 01:02:19;;;;;;;11.85;8.50;;;;;;;-2.85;98.87;102612.47;5048144;28;20612;-43
2022/03/08 01:04:44;;;;;;;11.43;9.38;;;;;;;-2.95;98.83;102612.03;5050094;28;20176;-43
2022/03/08 01:07:10;;;;;;;11.77;8.15;;;;;;;-2.85;99.05;102613.34;5049536;28;20629;-42
2022/03/08 01:09:36;;;;;;;11.35;8.52;;;;;;;-2.77;99.30;102611.09;5048559;28;20195;-41
2022/03/08 01:12:02;;;;;;;10.07;8.38;;;;;;;-2.77;99.10;102601.47;5049746;28;20217;-42
2022/03/08 01:14:27;;;;;;;12.25;9.02;;;;;;;-2.86;99.48;102606.31;5049638;28;20365;-43
2022/03/08 01:16:53;;;;;;;11.25;8.05;;;;;;;-2.81;99.41;102606.53;5049608;28;20170;-43
2022/03/08 01:19:18;;;;;;;11.13;8.45;;;;;;;-2.75;99.37;102610.31;5049519;28;20200;-42
2022/03/08 01:21:44;;;;;;;13.13;8.77;;;;;;;-2.88;99.70;102617.56;5048443;28;20241;-43
2022/03/08 01:24:09;;;;;;;11.35;8.27;;;;;;;-2.84;99.62;102593.25;5065019;28;20255;-43
2022/03/08 01:26:35;;;;;;;10.80;8.60;;;;;;;-3.02;99.39;102601.19;5048283;28;20659;-43
2022/03/08 01:29:01;;;;;;;9.23;8.02;;;;;;;-3.25;99.13;102608.91;5049744;28;20167;-41
2022/03/08 01:31:26;;;;;;;13.50;9.05;;;;;;;-3.22;100.00;102613.38;5045157;28;20164;-41
2022/03/08 01:33:54;;;;;;;12.13;9.60;;;;;;;-3.17;100.00;102594.44;5028197;28;20180;-41
2022/03/08 01:36:21;;;;;;;14.57;9.85;;;;;;;-3.15;100.00;102603.25;5030277;28;20191;-44
2022/03/08 01:38:46;;;;;;;14.38;10.10;;;;;;;-3.11;100.00;102601.66;5029393;28;20281;-43
2022/03/08 01:41:11;;;;;;;11.82;9.25;;;;;;;-3.04;100.00;102598.53;5031858;28;20172;-42
2022/03/08 01:43:37;;;;;;;13.93;9.68;;;;;;;-2.98;100.00;102596.16;5032340;28;20211;-39
2022/03/08 01:46:02;;;;;;;14.55;9.45;;;;;;;-3.04;100.00;102593.28;5033544;28;20618;-42
2022/03/08 01:48:28;;;;;;;12.07;8.77;;;;;;;-2.94;100.00;102586.72;5034021;28;20266;-42
2022/03/08 01:50:55;;;;;;;12.77;9.25;;;;;;;-3.01;100.00;102582.91;5032096;28;20267;-42
2022/03/08 01:53:21;;;;;;;14.38;9.00;;;;;;;-3.25;99.84;102598.41;5031828;28;20393;-42
2022/03/08 01:55:46;;;;;;;12.27;9.10;;;;;;;-3.07;100.00;102584.34;5033228;28;20709;-43
2022/03/08 01:58:12;;;;;;;14.75;9.13;;;;;;;-3.01;100.00;102587.28;5033055;28;20188;-43
2022/03/08 02:00:38;;;;;;;14.77;9.88;;;;;;;-3.11;100.00;102586.81;5033229;28;20643;-42
2022/03/08 02:03:03;;;;;;;16.45;10.18;;;;;;;-3.12;100.00;102581.53;5032655;28;20188;-42
2022/03/08 02:05:30;;;;;;;13.75;10.07;;;;;;;-3.15;99.98;102584.91;5033510;28;20168;-42
2022/03/08 02:07:56;;;;;;;15.07;9.65;;;;;;;-3.11;100.00;102578.97;5033005;28;20635;-42
2022/03/08 02:10:21;;;;;;;14.73;10.05;;;;;;;-3.22;99.94;102574.94;5032906;28;20255;-42
2022/03/08 02:12:48;;;;;;;14.18;9.52;;;;;;;-3.14;100.00;102575.31;5048282;28;20207;-40
2022/03/08 02:15:16;;;;;;;15.27;10.00;;;;;;;-3.11;99.94;102576.34;5032684;28;20179;-44
2022/03/08 02:17:42;;;;;;;15.35;9.80;;;;;;;-3.07;99.99;102577.38;5032481;28;20545;-42
2022/03/08 02:20:09;;;;;;;14.65;10.20;;;;;;;-3.22;99.50;102574.06;5032981;28;20188;-42
2022/03/08 02:22:35;;;;;;;13.23;9.82;;;;;;;-3.27;100.00;102575.59;5032411;28;20196;-42
2022/03/08 02:25:01;;;;;;;11.35;9.32;;;;;;;-3.17;99.79;102580.41;5032874;28;20714;-42
2022/03/08 02:27:27;;;;;;;15.52;9.00;;;;;;;-3.10;99.82;102572.00;5032503;28;20514;-42
2022/03/08 02:29:52;;;;;;;13.73;9.52;;;;;;;-3.23;99.38;102577.53;5032967;28;20234;-42
2022/03/08 02:32:18;;;;;;;14.63;9.85;;;;;;;-3.31;99.95;102579.78;5043851;28;20560;-44
2022/03/08 02:34:43;;;;;;;12.63;9.70;;;;;;;-3.33;99.62;102577.06;5035201;28;20612;-42
2022/03/08 02:37:11;;;;;;;14.35;10.70;;;;;;;-3.36;99.92;102584.81;5052335;28;20176;-41
2022/03/08 02:39:37;;;;;;;14.30;10.02;;;;;;;-3.38;100.00;102577.69;5051914;28;20187;-43
2022/03/08 02:42:04;;;;;;;15.05;9.52;;;;;;;-3.44;100.00;102575.66;5052320;28;20543;-43
2022/03/08 02:44:30;;;;;;;14.45;10.40;;;;;;;-3.42;100.00;102565.28;5052411;28;20546;-42
2022/03/08 02:46:56;;;;;;;16.20;10.38;;;;;;;-3.42;100.00;102565.28;5052057;28;20191;-42
2022/03/08 02:49:21;;;;;;;15.95;10.00;;;;;;;-3.47;100.00;102562.44;5052615;28;20304;-40
2022/03/08 02:51:47;;;;;;;15.35;9.95;;;;;;;-3.57;100.00;102570.69;5051149;28;20214;-43
2022/03/08 02:54:12;;;;;;;15.93;10.90;;;;;;;-3.55;100.00;102556.81;5052275;28;20170;-43
2022/03/08 02:56:38;;;;;;;15.98;10.07;;;;;;;-3.39;100.00;102561.09;5052085;28;20167;-41
2022/03/08 02:59:04;;;;;;;19.02;10.68;;;;;;;-3.35;100.00;102557.75;5050381;28;20190;-41
2022/03/08 03:01:29;;;;;;;12.60;9.45;;;;;;;-3.30;100.00;102563.25;5051623;28;20654;-43
2022/03/08 03:03:55;;;;;;;11.35;9.32;;;;;;;-3.49;100.00;102550.09;5050888;28;20175;-43
2022/03/08 03:06:20;;;;;;;14.93;9.85;;;;;;;-3.40;100.00;102558.38;5051860;28;20187;-41
2022/03/08 03:08:46;;;;;;;10.88;8.80;;;;;;;-3.40;100.00;102554.03;5051349;28;20170;-41
2022/03/08 03:11:11;;;;;;;14.23;9.48;;;;;;;-3.46;100.00;102550.22;5051855;28;20183;-42
2022/03/08 03:13:37;;;;;;;12.82;10.30;;;;;;;-3.49;100.00;102552.72;5051379;28;20234;-40
2022/03/08 03:16:02;;;;;;;12.70;9.80;;;;;;;-3.46;100.00;102561.59;5046122;28;20310;-43
2022/03/08 03:18:28;;;;;;;12.52;9.57;;;;;;;-3.51;100.00;102555.25;5051501;28;20666;-42
2022/03/08 03:20:53;;;;;;;14.38;10.27;;;;;;;-3.55;100.00;102559.44;5051416;28;20203;-41
2022/03/08 03:23:18;;;;;;;16.42;10.10;;;;;;;-3.54;100.00;102568.22;5051394;28;20211;-43
2022/03/08 03:25:44;;;;;;;13.73;9.40;;;;;;;-3.55;100.00;102577.78;5051462;28;20220;-42
2022/03/08 03:28:09;;;;;;;13.90;10.38;;;;;;;-3.65;100.00;102572.03;5051383;28;20179;-40
2022/03/08 03:30:35;;;;;;;14.23;9.85;;;;;;;-3.73;100.00;102563.81;5050880;28;20175;-42
2022/03/08 03:33:02;;;;;;;16.63;10.30;;;;;;;-3.92;100.00;102567.25;5050742;28;20227;-42
2022/03/08 03:35:28;;;;;;;13.90;9.73;;;;;;;-3.87;100.00;102571.03;5051429;28;20176;-42
2022/03/08 03:37:53;;;;;;;17.80;10.50;;;;;;;-3.87;100.00;102575.34;5051558;28;20175;-42
2022/03/08 03:40:19;;;;;;;16.63;11.20;;;;;;;-3.91;100.00;102570.75;5051147;28;20184;-42
2022/03/08 03:42:44;;;;;;;15.70;9.95;;;;;;;-3.84;100.00;102575.50;5050835;28;20366;-40
2022/03/08 03:45:10;;;;;;;15.43;10.05;;;;;;;-3.89;100.00;102574.34;5050435;28;20163;-41
2022/03/08 03:47:36;;;;;;;15.00;9.18;;;;;;;-4.07;100.00;102580.47;5051188;28;20194;-41
2022/03/08 03:50:04;;;;;;;14.07;10.32;;;;;;;-4.08;100.00;102586.56;5051004;28;20581;-41
2022/03/08 03:52:29;;;;;;;12.80;10.10;;;;;;;-3.99;100.00;102578.25;5049326;28;20297;-41
2022/03/08 03:54:55;;;;;;;16.25;10.25;;;;;;;-4.09;100.00;102582.13;5066468;28;20159;-41
2022/03/08 03:57:20;;;;;;;17.45;9.90;;;;;;;-4.06;100.00;102584.91;5050974;28;20207;-40
2022/03/08 03:59:46;;;;;;;18.20;10.15;;;;;;;-4.00;100.00;102584.31;5050853;28;20267;-41
2022/03/08 04:02:11;;;;;;;16.10;10.02;;;;;;;-3.92;100.00;102584.69;5050003;28;20219;-41
2022/03/08 04:04:37;;;;;;;14.95;8.75;;;;;;;-3.88;100.00;102584.03;5050715;28;20626;-41
2022/03/08 04:07:02;;;;;;;14.15;9.90;;;;;;;-3.90;100.00;102591.78;5049551;28;20179;-41
2022/03/08 04:09:28;;;;;;;16.85;9.75;;;;;;;-4.00;100.00;102589.53;5050831;28;20626;-40
2022/03/08 04:11:53;;;;;;;17.15;9.63;;;;;;;-3.97;100.00;102594.94;5050358;28;20195;-41
2022/03/08 04:14:18;;;;;;;15.13;9.32;;;;;;;-3.90;100.00;102599.66;5050557;28;20206;-43
2022/03/08 04:16:44;;;;;;;16.75;8.82;;;;;;;-3.85;100.00;102599.88;5050956;28;20174;-41
2022/03/08 04:19:09;;;;;;;17.67;9.80;;;;;;;-3.96;100.00;102587.19;5050493;28;20552;-42
2022/03/08 04:21:35;;;;;;;16.60;9.70;;;;;;;-3.90;100.00;102591.78;5065350;28;20704;-42
2022/03/08 04:24:00;;;;;;;18.70;9.85;;;;;;;-3.97;100.00;102592.31;5050259;28;20247;-44
2022/03/08 04:26:25;;;;;;;16.90;9.18;;;;;;;-3.92;100.00;102595.16;5050580;28;20202;-40
2022/03/08 04:28:51;;;;;;;14.23;9.02;;;;;;;-3.89;100.00;102592.69;5050286;28;20236;-42
2022/03/08 04:31:17;;;;;;;13.23;8.43;;;;;;;-4.12;100.00;102602.03;5047837;28;20302;-42
2022/03/08 04:33:42;;;;;;;16.17;8.73;;;;;;;-4.14;100.00;102601.94;5033702;28;20297;-42
2022/03/08 04:36:08;;;;;;;13.80;9.05;;;;;;;-4.02;100.00;102599.06;5043643;28;20190;-41
2022/03/08 04:38:34;;;;;;;15.20;8.93;;;;;;;-4.09;100.00;102592.59;5049824;28;20198;-42
2022/03/08 04:41:02;;;;;;;16.02;9.10;;;;;;;-4.24;100.00;102597.97;5050115;28;20184;-42
2022/03/08 04:43:30;;;;;;;15.90;8.30;;;;;;;-4.30;100.00;102599.38;5048396;28;20191;-43
2022/03/08 04:45:56;;;;;;;14.88;8.27;;;;;;;-4.27;100.00;102600.41;5041973;28;20606;-43
2022/03/08 04:48:21;;;;;;;13.38;7.95;;;;;;;-4.13;100.00;102593.28;5048390;28;20207;-42
2022/03/08 04:50:46;;;;;;;13.57;8.70;;;;;;;-4.15;100.00;102592.31;5049796;28;20175;-42
2022/03/08 04:53:12;;;;;;;11.13;7.90;;;;;;;-4.18;100.00;102586.91;5049565;28;20322;-43
2022/03/08 04:55:37;;;;;;;12.65;8.18;;;;;;;-4.14;100.00;102592.38;5049884;28;20155;-43
2022/03/08 04:58:06;;;;;;;14.55;7.68;;;;;;;-4.13;100.00;102601.16;5048258;28;20194;-43
2022/03/08 05:00:32;;;;;;;12.43;7.68;;;;;;;-4.26;100.00;102601.34;5049785;28;20175;-41
2022/03/08 05:02:58;;;;;;;12.25;8.10;;;;;;;-4.25;100.00;102597.91;5049082;28;20187;-42
2022/03/08 05:05:24;;;;;;;16.17;6.90;;;;;;;-4.12;100.00;102602.03;5049498;28;20164;-42
2022/03/08 05:07:49;;;;;;;13.43;7.30;;;;;;;-4.07;100.00;102592.69;5049765;28;20164;-42
2022/03/08 05:10:15;;;;;;;14.88;8.02;;;;;;;-4.12;100.00;102588.94;5049426;28;20210;-42
2022/03/08 05:12:41;;;;;;;13.45;8.18;;;;;;;-4.33;100.00;102604.44;5049168;28;20784;-41
2022/03/08 05:15:07;;;;;;;12.27;7.70;;;;;;;-4.35;100.00;102597.44;5049137;28;20502;-42
2022/03/08 05:17:33;;;;;;;12.90;7.03;;;;;;;-4.39;100.00;102597.19;5049151;28;20254;-42
2022/03/08 05:19:58;;;;;;;9.88;6.97;;;;;;;-4.36;100.00;102606.09;5049593;28;20348;-42
2022/03/08 05:22:24;;;;;;;10.00;7.60;;;;;;;-4.31;100.00;102597.56;5048964;28;20195;-43
2022/03/08 05:24:49;;;;;;;12.93;7.78;;;;;;;-4.30;100.00;102599.38;5049089;28;20176;-43
2022/03/08 05:27:15;;;;;;;9.63;7.20;;;;;;;-4.22;100.00;102611.13;5049515;28;20171;-42
2022/03/08 05:29:40;;;;;;;11.48;7.28;;;;;;;-4.23;100.00;102594.53;5049296;28;20630;-41
2022/03/08 05:32:07;;;;;;;13.45;7.30;;;;;;;-4.28;100.00;102597.75;5048939;28;20195;-41
2022/03/08 05:34:32;;;;;;;11.05;7.30;;;;;;;-4.27;100.00;102608.28;5049057;28;20183;-42
2022/03/08 05:36:58;;;;;;;10.93;7.20;;;;;;;-4.16;100.00;102603.59;5049965;28;20187;-42
2022/03/08 05:39:23;;;;;;;10.63;6.95;;;;;;;-4.16;100.00;102603.59;5049090;28;20199;-42
2022/03/08 05:41:49;;;;;;;12.65;7.68;;;;;;;-4.16;100.00;102596.63;5048712;28;20203;-47
2022/03/08 05:44:15;;;;;;;12.82;7.05;;;;;;;-4.21;100.00;102589.38;5048786;28;20675;-46
2022/03/08 05:46:41;;;;;;;12.68;7.13;;;;;;;-4.33;100.00;102602.72;5048625;28;20183;-47
2022/03/08 05:49:06;;;;;;;10.95;7.13;;;;;;;-4.38;100.00;102598.97;5047450;28;20545;-46
2022/03/08 05:51:32;;;;;;;12.65;7.25;;;;;;;-4.43;100.00;102605.72;5048261;28;20254;-44
2022/03/08 05:53:58;;;;;;;12.60;7.15;;;;;;;-4.37;100.00;102595.56;5047352;28;20193;-44
2022/03/08 05:56:23;;;;;;;11.88;7.25;;;;;;;-4.30;100.00;102594.16;5048711;28;20166;-44
2022/03/08 05:58:48;;;;;;;10.93;7.65;;;;;;;-4.33;100.00;102613.19;5048400;28;20191;-46
2022/03/08 06:01:14;;;;;;;9.45;7.18;;;;;;;-4.40;100.00;102613.69;5048568;28;20175;-44
2022/03/08 06:03:39;;;;;;;10.73;7.15;;;;;;;-4.26;100.00;102612.69;5048366;28;20199;-44
2022/03/08 06:06:05;;;;;;;12.13;7.07;;;;;;;-4.22;100.00;102612.03;5048398;28;20163;-46
2022/03/08 06:08:30;;;;;;;9.35;7.10;;;;;;;-4.17;100.00;102601.81;5048605;28;20631;-45
2022/03/08 06:10:56;;;;;;;11.30;7.40;;;;;;;-4.31;100.00;102598.47;5048420;28;20549;-45
2022/03/08 06:13:21;;;;;;;15.80;7.35;;;;;;;-4.38;100.00;102606.84;5048009;28;20706;-45
2022/03/08 06:15:46;;;;;;;13.73;7.45;;;;;;;-4.30;100.00;102615.09;5048350;28;20216;-46
2022/03/08 06:18:12;;;;;;;13.13;8.10;;;;;;;-4.22;100.00;102606.81;5048393;28;20198;-46
2022/03/08 06:20:38;;;;;;;10.38;7.32;;;;;;;-4.09;100.00;102605.69;5048413;28;20855;-43
2022/03/08 06:23:03;;;;;;;13.02;7.53;;;;;;;-4.02;100.00;102601.69;5047681;28;20217;-44
2022/03/08 06:25:29;;;;;;;10.30;7.15;;;;;;;-3.95;100.00;102601.16;5048936;28;20589;-44
2022/03/08 06:27:54;;;;;;;12.68;7.25;;;;;;;-3.85;100.00;102599.88;5051852;28;20267;-45
2022/03/08 06:30:19;;;;;;;8.40;6.70;;;;;;;-3.82;100.00;102600.94;5052170;28;20200;-44
2022/03/08 06:32:45;;;;;;;9.40;7.28;;;;;;;-3.74;100.00;102599.59;5051259;28;20229;-44
2022/03/08 06:35:11;;;;;;;9.77;7.32;;;;;;;-3.59;100.00;102599.41;5052224;28;20197;-43
2022/03/08 06:37:37;;;;;;;11.07;7.25;;;;;;;-3.47;100.00;102598.22;5052080;28;20185;-44
2022/03/08 06:40:03;;;;;;;8.93;6.75;;;;;;;-3.42;100.00;102602.84;5051658;28;20195;-45
2022/03/08 06:42:29;;;;;;;9.90;7.32;;;;;;;-3.37;100.00;102589.97;5051786;28;20293;-45
2022/03/08 06:44:54;;;;;;;12.25;6.85;;;;;;;-3.23;100.00;102588.91;5052422;28;20259;-43
2022/03/08 06:47:19;;;;;;;10.20;7.22;;;;;;;-3.21;100.00;102587.25;5052251;28;20175;-45
2022/03/08 06:49:45;;;;;;;10.55;6.93;;;;;;;-3.18;100.00;102590.00;5052277;28;20220;-45
2022/03/08 06:52:10;;;;;;;9.65;7.13;;;;;;;-3.04;100.00;102590.66;5051938;28;20198;-44
2022/03/08 06:54:37;;;;;;;8.73;6.88;;;;;;;-2.75;100.00;102585.81;5052282;28;20175;-46
2022/03/08 06:57:03;;;;;;;12.20;7.63;;;;;;;-2.36;100.00;102581.41;5053529;28;20183;-46
2022/03/08 06:59:28;;;;;;;12.90;7.75;;;;;;;-2.25;99.85;102587.13;5050788;28;20195;-46
2022/03/08 07:01:56;;;;;;;15.38;7.97;;;;;;;-2.01;99.43;102591.59;5045949;28;20221;-47
2022/03/08 07:04:22;;;;;;;9.68;7.28;;;;;;;-1.71;98.75;102591.97;5049771;28;20183;-45
2022/03/08 07:06:47;;;;;;;10.27;7.10;;;;;;;-1.54;97.82;102592.66;5050418;28;20179;-46
2022/03/08 07:09:13;;;;;;;12.93;6.90;;;;;;;-1.13;97.24;102588.13;5044730;28;20217;-45
2022/03/08 07:11:40;;;;;;;12.55;6.80;;;;;;;-0.93;96.20;102586.22;5030347;28;20635;-47
2022/03/08 07:14:06;;;;;;;10.70;7.22;;;;;;;-0.59;94.68;102583.09;5050788;28;20219;-45
2022/03/08 07:16:31;;;;;;;7.22;5.93;;;;;;;-0.24;93.55;102580.78;5051992;28;20175;-47
2022/03/08 07:18:57;;;;;;;10.00;6.68;;;;;;;0.10;92.54;102589.84;5033416;28;20199;-45
2022/03/08 07:21:23;;;;;;;9.32;7.30;;;;;;;0.48;91.50;102590.16;5028911;28;20185;-46
2022/03/08 07:23:48;;;;;;;12.52;6.90;;;;;;;0.72;89.64;102590.97;5053352;28;20198;-45
2022/03/08 07:26:14;;;;;;;11.00;7.70;;;;;;;1.11;88.40;102592.97;5048240;28;20175;-46
2022/03/08 07:28:39;;;;;;;10.75;7.25;;;;;;;1.25;86.36;102588.13;5051492;28;20202;-45
2022/03/08 07:31:05;;;;;;;9.15;6.20;;;;;;;1.48;84.72;102601.06;5051218;28;20627;-46
2022/03/08 07:33:31;;;;;;;10.55;6.80;;;;;;;1.74;83.99;102586.81;5050928;28;20290;-44
2022/03/08 07:35:57;;;;;;;10.48;6.38;;;;;;;1.98;82.49;102591.84;5051734;28;20228;-40
2022/03/08 07:38:22;;;;;;;12.15;6.90;;;;;;;1.99;81.26;102587.44;5050116;28;20623;-41
2022/03/08 07:40:48;;;;;;;11.25;6.65;;;;;;;2.10;81.46;102571.84;5051454;28;20179;-43
2022/03/08 07:43:13;;;;;;;11.05;7.18;;;;;;;2.35;80.96;102576.00;5051099;28;20191;-41
2022/03/08 07:45:39;;;;;;;10.50;6.95;;;;;;;2.62;79.96;102579.28;5051474;28;20163;-40
2022/03/08 07:48:05;;;;;;;10.73;7.28;;;;;;;2.68;79.34;102570.56;5050209;28;20218;-39
2022/03/08 07:50:32;;;;;;;11.20;7.32;;;;;;;2.79;77.71;102571.69;5049961;28;20943;-42
2022/03/08 07:52:59;;;;;;;8.38;6.35;;;;;;;3.26;77.70;102566.50;5050881;28;20291;-43
2022/03/08 07:55:26;;;;;;;8.60;5.40;;;;;;;3.45;77.13;102567.75;5053219;28;20626;-41
2022/03/08 07:57:52;;;;;;;6.70;5.65;;;;;;;3.60;75.20;102579.53;5070825;28;20233;-42
2022/03/08 08:00:18;;;;;;;5.80;4.32;;;;;;;3.58;72.03;102578.59;5070775;28;20167;-41
2022/03/08 08:02:43;;;;;;;5.65;4.20;;;;;;;3.85;70.56;102567.63;5070584;28;20190;-42
2022/03/08 08:05:09;;;;;;;9.93;5.07;;;;;;;4.13;68.75;102575.16;5068529;28;20292;-43
2022/03/08 08:07:34;;;;;;;8.23;3.83;;;;;;;4.23;65.34;102575.31;5071010;28;20167;-42
2022/03/08 08:10:00;;;;;;;4.53;3.80;;;;;;;4.43;66.32;102576.50;5069322;28;20186;-39
2022/03/08 08:12:26;;;;;;;5.50;4.07;;;;;;;4.87;64.78;102578.03;5070430;28;20201;-38
2022/03/08 08:14:52;;;;;;;5.03;3.55;;;;;;;4.93;61.47;102568.38;5070984;28;20190;-42
2022/03/08 08:17:18;;;;;;;5.35;3.15;;;;;;;4.78;60.74;102577.91;5064216;28;20176;-41
2022/03/08 08:19:43;;;;;;;4.68;3.25;;;;;;;4.89;60.70;102574.50;5043269;28;20218;-41
2022/03/08 08:22:09;;;;;;;5.72;3.10;;;;;;;4.33;59.13;102571.94;5055845;28;20248;-44
2022/03/08 08:24:35;;;;;;;3.95;2.97;;;;;;;4.89;57.45;102571.84;5070277;28;20283;-41
2022/03/08 08:27:01;;;;;;;5.60;3.28;;;;;;;5.20;57.13;102560.72;5070795;28;20250;-40
2022/03/08 08:29:26;;;;;;;4.45;3.25;;;;;;;5.20;57.62;102566.03;5069843;28;20173;-44
2022/03/08 08:31:52;;;;;;;3.85;2.75;;;;;;;5.49;55.29;102569.03;5070214;28;20198;-43
2022/03/08 08:34:17;;;;;;;4.68;3.47;;;;;;;5.54;54.36;102562.00;5070122;28;20151;-42
2022/03/08 08:36:46;;;;;;;5.10;3.15;;;;;;;5.74;52.90;102571.06;5070261;28;20224;-43
2022/03/08 08:39:12;;;;;;;6.18;3.30;;;;;;;6.03;52.46;102562.47;5069888;28;20285;-44
2022/03/08 08:41:37;;;;;;;3.65;2.97;;;;;;;6.03;51.55;102567.81;5070002;28;20213;-43
2022/03/08 08:44:03;;;;;;;5.07;2.95;;;;;;;6.27;51.28;102563.56;5070182;28;20209;-44
2022/03/08 08:46:28;;;;;;;3.35;3.05;;;;;;;6.22;50.52;102565.31;5070037;28;20246;-42
2022/03/08 08:48:54;;;;;;;4.72;3.38;;;;;;;6.13;50.21;102564.34;5069478;28;20187;-41
2022/03/08 08:51:19;;;;;;;4.57;3.13;;;;;;;6.42;50.46;102553.03;5069888;28;20168;-42
2022/03/08 08:53:44;;;;;;;5.85;3.60;;;;;;;6.79;49.07;102555.91;5069520;28;20187;-43
2022/03/08 08:56:10;;;;;;;7.15;3.13;;;;;;;6.12;47.90;102554.59;5069920;28;20177;-45
2022/03/08 08:58:35;;;;;;;5.25;3.80;;;;;;;6.22;48.87;102552.00;5068381;28;20190;-43
2022/03/08 09:01:00;;;;;;;4.45;3.60;;;;;;;6.55;47.99;102554.88;5070242;28;20244;-43
2022/03/08 09:03:26;;;;;;;5.47;3.00;;;;;;;6.58;47.35;102544.28;5069889;28;20209;-41
2022/03/08 09:05:51;;;;;;;6.28;2.90;;;;;;;6.40;47.21;102547.69;5069749;28;20606;-41
2022/03/08 09:08:23;;;;;;;3.50;2.72;;;;;;;6.74;46.67;102549.69;5069748;28;20198;-43
2022/03/08 09:10:50;;;;;;;3.50;2.40;;;;;;;6.30;45.54;102553.84;5070340;28;20598;-42
2022/03/08 09:13:15;;;;;;;3.50;2.50;;;;;;;6.66;45.65;102554.94;5069239;28;20186;-43
2022/03/08 09:15:40;;;;;;;3.85;2.45;;;;;;;6.86;44.75;102562.16;5068036;28;20190;-41
2022/03/08 09:18:07;;;;;;;3.15;2.38;;;;;;;7.21;45.81;102548.97;5069601;28;20198;-43
2022/03/08 09:20:33;;;;;;;3.25;2.80;;;;;;;6.93;45.06;102546.22;5069621;28;20171;-41
2022/03/08 09:22:58;;;;;;;3.53;2.30;;;;;;;6.89;45.06;102549.75;5069790;28;20187;-42
2022/03/08 09:25:24;;;;;;;3.30;2.08;;;;;;;7.05;45.76;102539.16;5069638;28;20166;-44
2022/03/08 09:27:50;;;;;;;2.90;2.53;;;;;;;7.03;44.89;102544.47;5068418;28;20206;-41
2022/03/08 09:30:16;;;;;;;3.92;2.50;;;;;;;7.17;46.28;102545.44;5069258;28;20162;-43
2022/03/08 09:32:41;;;;;;;4.20;2.22;;;;;;;7.30;45.45;102550.78;5069524;28;20190;-40
2022/03/08 09:35:07;;;;;;;3.55;2.58;;;;;;;7.35;45.15;102557.94;5069805;28;20657;-43
2022/03/08 09:37:33;;;;;;;5.82;2.50;;;;;;;7.24;44.63;102549.00;5069275;28;20163;-45
2022/03/08 09:39:59;;;;;;;3.60;2.22;;;;;;;7.77;45.20;102552.69;5069397;28;20641;-44
2022/03/08 09:42:25;;;;;;;4.55;2.50;;;;;;;7.55;44.90;102538.41;5069524;28;20267;-41
2022/03/08 09:44:50;;;;;;;3.63;2.22;;;;;;;7.32;44.11;102554.34;5069594;28;20180;-43
2022/03/08 09:47:16;;;;;;;5.88;2.22;;;;;;;7.47;45.05;102549.06;5069613;28;20623;-41
2022/03/08 09:49:42;;;;;;;3.28;2.10;;;;;;;7.67;44.11;102554.44;5068882;28;20598;-44
2022/03/08 09:52:08;;;;;;;2.42;2.17;;;;;;;8.10;44.75;102556.25;5066859;28;20217;-47
2022/03/08 09:54:33;;;;;;;3.83;2.20;;;;;;;8.15;44.09;102555.34;5047375;28;20650;-46
2022/03/08 09:56:59;;;;;;;3.25;2.55;;;;;;;8.04;43.53;102546.44;5047265;28;20616;-45
2022/03/08 09:59:29;;;;;;;2.60;1.92;;;;;;;8.11;44.70;102544.66;5048767;28;20274;-47
2022/03/08 10:01:56;;;;;;;4.82;1.70;;;;;;;8.00;44.36;102542.00;5049802;28;20682;-47
2022/03/08 10:04:21;;;;;;;4.43;2.10;;;;;;;8.28;44.89;102539.31;5034755;28;20191;-46
2022/03/08 10:06:50;;;;;;;2.65;1.75;;;;;;;8.32;43.36;102550.00;5052785;28;20205;-46
2022/03/08 10:09:18;;;;;;;2.97;1.90;;;;;;;8.03;42.49;102547.34;5052363;28;20207;-47
2022/03/08 10:11:44;;;;;;;4.25;2.08;;;;;;;7.80;44.43;102555.34;5052782;28;20270;-47
2022/03/08 10:14:26;;;;;;;3.90;2.17;;;;;;;7.66;44.12;102536.66;5052160;28;20217;-47
2022/03/08 10:16:52;;;;;;;5.28;1.77;;;;;;;7.77;44.49;102523.31;5053405;28;20534;-47
2022/03/08 10:19:18;;;;;;;3.13;2.22;;;;;;;7.56;43.06;102521.50;5052158;28;20194;-47
2022/03/08 10:21:52;;;;;;;2.80;1.60;;;;;;;8.30;44.13;102516.19;5051908;28;20172;-45
2022/03/08 10:24:20;;;;;;;1.60;1.50;;;;;;;8.35;43.46;102520.63;5052508;28;20298;-45
2022/03/08 10:26:51;;;;;;;3.05;1.50;;;;;;;8.67;43.15;102514.34;5052366;28;20206;-46
2022/03/08 10:29:27;;;;;;;8.32;2.05;;;;;;;8.78;42.33;102525.88;5052527;28;20217;-45
2022/03/08 10:32:09;;;;;;;3.53;1.80;;;;;;;8.79;42.46;102508.03;5051980;28;20233;-45
2022/03/08 10:34:40;;;;;;;2.00;1.50;;;;;;;8.89;42.65;102515.16;5052080;28;20171;-47
2022/03/08 10:37:15;;;;;;;4.20;1.83;;;;;;;8.50;42.11;102526.84;5050402;28;20542;-46
2022/03/08 10:39:48;;;;;;;2.85;1.75;;;;;;;8.18;42.33;102522.44;5050068;28;20349;-45
2022/03/08 10:42:23;;;;;;;1.92;1.73;;;;;;;8.03;43.52;102526.88;5051137;28;20214;-45
2022/03/08 10:44:49;;;;;;;2.85;1.50;;;;;;;8.63;42.70;102524.13;5051799;28;20167;-45
2022/03/08 10:47:16;;;;;;;2.53;1.50;;;;;;;8.54;41.85;102515.28;5052531;28;20168;-42
2022/03/08 10:49:56;;;;;;;1.98;1.70;;;;;;;8.32;41.68;102517.06;5052091;28;20171;-42
2022/03/08 10:52:33;;;;;;;2.72;1.50;;;;;;;8.58;41.79;102517.94;5052453;28;20635;-42
2022/03/08 10:55:09;;;;;;;3.17;1.88;;;;;;;8.70;42.29;102508.09;5052732;28;20645;-43
2022/03/08 10:57:35;;;;;;;3.25;1.90;;;;;;;9.04;41.56;102493.69;5052246;28;20171;-44
2022/03/08 11:00:01;;;;;;;2.78;1.70;;;;;;;8.92;40.15;102499.13;5052652;28;20187;-43
2022/03/08 11:02:26;;;;;;;2.65;1.60;;;;;;;8.76;40.55;102500.06;5052152;28;20223;-45
2022/03/08 11:05:09;;;;;;;2.92;1.67;;;;;;;8.93;41.32;102498.19;5052455;28;20224;-43
2022/03/08 11:07:36;;;;;;;3.28;1.58;;;;;;;8.72;40.67;102498.28;5051486;28;20206;-43
2022/03/08 11:10:07;;;;;;;2.70;1.42;;;;;;;8.78;40.97;102506.28;5052046;28;20645;-43
2022/03/08 11:12:33;;;;;;;2.30;1.75;;;;;;;8.92;40.92;102498.19;5051554;28;20689;-44
2022/03/08 11:14:58;;;;;;;2.78;1.42;;;;;;;8.84;40.59;102507.16;5052025;28;20167;-39